Time;durP1;ratioP1;P1;durP2;ratioP2;P2;SDS_P1;SDS_P2;PMS_P1;PMS_P2;Temp;Humidity;BMP_temperature;BMP_pressure;BME280_temperature;BME280_humidity;BME280_pressure;Samples;Min_cycle;Max_cycle;Signal;HPM_P1;HPM_P2
2022/02/14 00:01:23;;;;;;;;;;;;;;;1.37;70.78;100565.40;1678389;83;26555;-68
2022/02/14 00:03:49;;;;;;;;;;;;;;;1.37;70.79;100566.72;1681181;83;25959;-68
2022/02/14 00:06:15;;;;;;;;;;;;;;;1.37;70.81;100569.36;1701309;82;83812;-68
2022/02/14 00:08:42;;;;;;;;;;;;;;;1.37;70.77;100565.84;1693046;83;28441;-68
2022/02/14 00:11:07;;;;;;;;;;;;;;;1.35;70.76;100562.34;1706757;82;83952;-68
2022/02/14 00:13:33;;;;;;;;;;;;;;;1.34;70.80;100569.83;1702974;82;25916;-68
2022/02/14 00:15:59;;;;;;;;;;;;;;;1.33;70.72;100554.42;1706146;82;25949;-68
2022/02/14 00:18:24;;;;;;;;;;;;;;;1.37;70.82;100561.88;1703495;82;83631;-68
2022/02/14 00:20:50;;;;;;;;;;;;;;;1.34;70.75;100557.50;1701257;82;27489;-68
2022/02/14 00:23:16;;;;;;;;;;;;;;;1.33;70.78;100558.38;1709179;82;83928;-68
2022/02/14 00:25:41;;;;;;;;;;;;;;;1.32;70.80;100559.72;1706340;82;26329;-68
2022/02/14 00:28:08;;;;;;;;;;;;;;;1.31;70.76;100556.20;1681310;83;26535;-68
2022/02/14 00:30:35;;;;;;;;;;;;;;;1.29;70.75;100560.17;1681152;83;83899;-68
2022/02/14 00:33:00;;;;;;;;;;;;;;;1.29;70.75;100550.05;1677648;83;27401;-67
2022/02/14 00:35:27;;;;;;;;;;;;;;;1.27;70.74;100550.51;1708275;82;83832;-68
2022/02/14 00:37:53;;;;;;;;;;;;;;;1.25;70.61;100545.23;1711422;82;25814;-68
2022/02/14 00:40:20;;;;;;;;;;;;;;;1.26;70.69;100540.39;1710144;82;25779;-68
2022/02/14 00:42:46;;;;;;;;;;;;;;;1.25;70.66;100536.00;1709797;82;83753;-68
2022/02/14 00:45:11;;;;;;;;;;;;;;;1.22;70.68;100534.70;1704364;82;28222;-68
2022/02/14 00:47:37;;;;;;;;;;;;;;;1.21;70.64;100538.67;1703730;82;84539;-68
2022/02/14 00:50:04;;;;;;;;;;;;;;;1.21;70.70;100532.95;1690523;83;25862;-68
2022/02/14 00:52:30;;;;;;;;;;;;;;;1.22;70.69;100532.50;1687488;83;84175;-68
2022/02/14 00:54:57;;;;;;;;;;;;;;;1.21;70.68;100534.71;1689361;83;25781;-68
2022/02/14 00:57:25;;;;;;;;;;;;;;;1.20;70.64;100540.44;1686773;83;27477;-68
2022/02/14 00:59:51;;;;;;;;;;;;;;;1.19;70.63;100536.05;1685189;83;84001;-68
2022/02/14 01:02:17;;;;;;;;;;;;;;;1.19;70.63;100539.13;1691301;83;25844;-68
2022/02/14 01:04:43;;;;;;;;;;;;;;;1.16;70.56;100533.87;1690199;83;83881;-68
2022/02/14 01:07:08;;;;;;;;;;;;;;;1.16;70.61;100537.83;1690559;83;26418;-68
2022/02/14 01:09:34;;;;;;;;;;;;;;;1.14;70.62;100529.04;1671611;84;27809;-68
2022/02/14 01:12:00;;;;;;;;;;;;;;;1.11;70.61;100524.66;1669199;84;83764;-68
2022/02/14 01:14:26;;;;;;;;;;;;;;;1.13;70.62;100524.65;1669199;84;36103;-68
2022/02/14 01:16:56;;;;;;;;;;;;;;;1.11;70.59;100524.66;1663917;84;83927;-67
2022/02/14 01:19:20;;;;;;;;;;;;;;;1.10;70.62;100522.91;1667211;84;25883;-69
2022/02/14 01:21:47;;;;;;;;;;;;;;;1.10;70.18;100523.35;1666485;84;27569;-67
2022/02/14 01:24:12;;;;;;;;;;;;;;;1.10;70.60;100528.19;1667328;84;84054;-70
2022/02/14 01:26:40;;;;;;;;;;;;;;;1.09;70.56;100521.59;1663268;84;26633;-70
2022/02/14 01:29:06;;;;;;;;;;;;;;;1.07;70.53;100517.65;1671587;84;85434;-70
2022/02/14 01:31:32;;;;;;;;;;;;;;;1.05;70.51;100518.55;1674061;84;25747;-70
2022/02/14 01:33:58;;;;;;;;;;;;;;;1.02;70.45;100508.89;1672130;84;27367;-70
2022/02/14 01:36:28;;;;;;;;;;;;;;;1.01;70.51;100511.53;1668692;84;83881;-70
2022/02/14 01:38:53;;;;;;;;;;;;;;;1.00;70.48;100507.14;1671842;84;26540;-68
2022/02/14 01:41:20;;;;;;;;;;;;;;;0.98;70.56;100507.16;1670635;84;83755;-68
2022/02/14 01:43:45;;;;;;;;;;;;;;;0.96;70.52;100504.97;1670018;84;25724;-68
2022/02/14 01:46:12;;;;;;;;;;;;;;;0.89;70.50;100490.94;1674896;84;27401;-68
2022/02/14 01:48:37;;;;;;;;;;;;;;;0.95;70.51;100504.09;1677953;83;83682;-68
2022/02/14 01:51:05;;;;;;;;;;;;;;;0.93;70.53;100497.95;1679514;83;25728;-70
2022/02/14 01:53:31;;;;;;;;;;;;;;;0.93;70.54;100493.11;1681705;83;84529;-69
2022/02/14 01:55:57;;;;;;;;;;;;;;;0.94;70.48;100496.19;1705990;82;25703;-70
2022/02/14 01:58:23;;;;;;;;;;;;;;;0.93;70.38;100491.80;1676409;83;84077;-70
2022/02/14 02:00:49;;;;;;;;;;;;;;;0.91;70.35;100483.89;1696219;82;25873;-70
2022/02/14 02:03:16;;;;;;;;;;;;;;;0.88;70.44;100474.67;1674249;83;25966;-70
2022/02/14 02:05:45;;;;;;;;;;;;;;;0.88;70.50;100475.12;1670750;84;83725;-68
2022/02/14 02:08:13;;;;;;;;;;;;;;;0.87;70.48;100474.69;1682445;83;28163;-68
2022/02/14 02:10:40;;;;;;;;;;;;;;;0.87;70.48;100471.60;1681036;83;84221;-67
2022/02/14 02:13:06;;;;;;;;;;;;;;;0.85;70.43;100472.05;1678309;83;26072;-70
2022/02/14 02:15:32;;;;;;;;;;;;;;;0.83;70.47;100471.19;1701788;82;25690;-69
2022/02/14 02:17:58;;;;;;;;;;;;;;;0.83;70.43;100468.55;1673595;83;83879;-69
2022/02/14 02:20:24;;;;;;;;;;;;;;;0.83;70.49;100465.04;1681017;83;25961;-69
2022/02/14 02:22:52;;;;;;;;;;;;;;;0.80;70.46;100460.66;1682000;83;84555;-69
2022/02/14 02:25:19;;;;;;;;;;;;;;;0.78;70.32;100458.91;1675232;84;25685;-69
2022/02/14 02:27:45;;;;;;;;;;;;;;;0.79;70.47;100457.59;1683613;83;25819;-69
2022/02/14 02:30:14;;;;;;;;;;;;;;;0.80;70.41;100463.73;1683192;83;83993;-69
2022/02/14 02:32:41;;;;;;;;;;;;;;;0.80;70.41;100454.50;1685279;83;25981;-69
2022/02/14 02:35:07;;;;;;;;;;;;;;;0.80;70.43;100447.91;1680377;83;84165;-69
2022/02/14 02:37:33;;;;;;;;;;;;;;;0.80;70.43;100459.34;1700437;82;26516;-69
2022/02/14 02:39:59;;;;;;;;;;;;;;;0.79;70.46;100456.27;1703045;82;25779;-69
2022/02/14 02:42:26;;;;;;;;;;;;;;;0.80;70.43;100454.50;1699068;82;83799;-69
2022/02/14 02:44:52;;;;;;;;;;;;;;;0.80;70.38;100449.23;1700328;82;25762;-70
2022/02/14 02:47:22;;;;;;;;;;;;;;;0.80;70.25;100450.11;1694711;82;83714;-69
2022/02/14 02:49:48;;;;;;;;;;;;;;;0.80;70.39;100446.14;1697414;82;25909;-69
2022/02/14 02:52:15;;;;;;;;;;;;;;;0.79;70.28;100444.39;1702022;82;25944;-70
2022/02/14 02:54:41;;;;;;;;;;;;;;;0.79;70.35;100445.72;1705174;82;84254;-68
2022/02/14 02:57:07;;;;;;;;;;;;;;;0.77;70.28;100436.06;1698241;82;25805;-68
2022/02/14 02:59:34;;;;;;;;;;;;;;;0.76;70.34;100432.55;1682105;83;84024;-68
2022/02/14 03:02:02;;;;;;;;;;;;;;;0.75;70.32;100432.11;1680489;83;26771;-68
2022/02/14 03:04:28;;;;;;;;;;;;;;;0.76;70.27;100427.27;1680127;83;84188;-68
2022/02/14 03:06:53;;;;;;;;;;;;;;;0.77;70.27;100422.87;1702234;82;25983;-68
2022/02/14 03:09:19;;;;;;;;;;;;;;;0.77;70.30;100418.91;1705193;82;25884;-68
2022/02/14 03:11:45;;;;;;;;;;;;;;;0.78;70.29;100420.22;1680636;83;83883;-68
2022/02/14 03:14:12;;;;;;;;;;;;;;;0.78;70.24;100420.22;1683955;83;25929;-68
2022/02/14 03:16:38;;;;;;;;;;;;;;;0.79;70.23;100412.73;1681752;83;84023;-68
2022/02/14 03:19:04;;;;;;;;;;;;;;;0.80;70.20;100415.81;1683819;83;25799;-70
2022/02/14 03:21:30;;;;;;;;;;;;;;;0.82;70.18;100415.80;1683158;83;26108;-68
2022/02/14 03:23:56;;;;;;;;;;;;;;;0.81;70.14;100404.81;1680750;83;83869;-68
2022/02/14 03:26:23;;;;;;;;;;;;;;;0.81;70.02;100408.33;1678759;83;25831;-68
2022/02/14 03:28:52;;;;;;;;;;;;;;;0.84;70.02;100398.19;1684710;83;84036;-68
2022/02/14 03:31:18;;;;;;;;;;;;;;;0.83;70.01;100393.80;1680724;83;26486;-68
2022/02/14 03:33:46;;;;;;;;;;;;;;;0.84;70.04;100396.43;1683027;83;25787;-68
2022/02/14 03:36:14;;;;;;;;;;;;;;;0.85;69.97;100388.07;1678192;83;83773;-68
2022/02/14 03:38:41;;;;;;;;;;;;;;;0.86;69.96;100389.82;1673610;83;25947;-68
2022/02/14 03:41:09;;;;;;;;;;;;;;;0.85;69.73;100390.70;1679660;83;83918;-70
2022/02/14 03:43:34;;;;;;;;;;;;;;;0.86;69.88;100376.63;1676543;83;25814;-68
2022/02/14 03:46:00;;;;;;;;;;;;;;;0.86;69.06;100381.46;1681931;83;25824;-68
2022/02/14 03:48:26;;;;;;;;;;;;;;;0.85;69.83;100379.71;1676706;83;83845;-68
2022/02/14 03:50:55;;;;;;;;;;;;;;;0.86;69.56;100378.83;1682990;83;25798;-68
2022/02/14 03:53:23;;;;;;;;;;;;;;;0.87;69.68;100376.62;1676507;83;83972;-68
2022/02/14 03:55:49;;;;;;;;;;;;;;;0.88;69.55;100370.45;1680914;83;26024;-68
2022/02/14 03:58:15;;;;;;;;;;;;;;;0.90;69.64;100369.13;1693285;83;25808;-68
2022/02/14 04:00:41;;;;;;;;;;;;;;;0.89;68.88;100370.01;1688140;83;83559;-68
2022/02/14 04:03:07;;;;;;;;;;;;;;;0.90;69.46;100364.72;1686676;83;25815;-68
2022/02/14 04:05:33;;;;;;;;;;;;;;;0.91;69.47;100367.78;1677633;83;83893;-68
2022/02/14 04:07:59;;;;;;;;;;;;;;;0.90;69.38;100365.16;1680599;83;25756;-69
2022/02/14 04:10:26;;;;;;;;;;;;;;;0.88;69.28;100362.53;1680488;83;84155;-69
2022/02/14 04:12:53;;;;;;;;;;;;;;;0.87;69.32;100360.78;1680431;83;27383;-69
2022/02/14 04:15:19;;;;;;;;;;;;;;;0.88;69.35;100355.06;1682543;83;25947;-69
2022/02/14 04:17:44;;;;;;;;;;;;;;;0.87;69.27;100350.23;1683297;83;84458;-68
2022/02/14 04:20:11;;;;;;;;;;;;;;;0.89;68.96;100347.14;1683278;83;25748;-68
2022/02/14 04:22:40;;;;;;;;;;;;;;;0.91;69.20;100348.44;1683764;83;83976;-68
2022/02/14 04:25:10;;;;;;;;;;;;;;;0.92;69.23;100340.52;1683674;83;27390;-69
2022/02/14 04:27:36;;;;;;;;;;;;;;;0.91;69.18;100345.36;1671685;83;25981;-68
2022/02/14 04:30:03;;;;;;;;;;;;;;;0.90;68.79;100339.66;1677931;83;84695;-69
2022/02/14 04:32:29;;;;;;;;;;;;;;;0.91;69.11;100336.57;1688048;83;25876;-68
2022/02/14 04:34:56;;;;;;;;;;;;;;;0.91;69.13;100337.89;1685801;83;84819;-68
2022/02/14 04:37:23;;;;;;;;;;;;;;;0.92;69.08;100335.68;1687657;83;27402;-68
2022/02/14 04:39:49;;;;;;;;;;;;;;;0.93;69.00;100337.42;1691276;83;25739;-69
2022/02/14 04:42:17;;;;;;;;;;;;;;;0.93;68.93;100326.88;1686743;83;83859;-68
2022/02/14 04:44:42;;;;;;;;;;;;;;;0.92;68.92;100332.59;1689615;83;25816;-69
2022/02/14 04:47:08;;;;;;;;;;;;;;;0.94;68.92;100328.63;1687622;83;83963;-68
2022/02/14 04:49:34;;;;;;;;;;;;;;;0.93;68.60;100321.16;1684183;83;27470;-68
2022/02/14 04:52:00;;;;;;;;;;;;;;;0.94;68.84;100329.50;1687777;83;25917;-68
2022/02/14 04:54:27;;;;;;;;;;;;;;;0.94;68.82;100324.67;1686763;83;83934;-68
2022/02/14 04:56:52;;;;;;;;;;;;;;;0.96;68.66;100326.84;1688356;83;25781;-70
2022/02/14 04:59:19;;;;;;;;;;;;;;;1.00;68.65;100326.38;1684192;83;84486;-68
2022/02/14 05:01:44;;;;;;;;;;;;;;;1.00;68.60;100326.38;1687418;83;27388;-68
2022/02/14 05:04:10;;;;;;;;;;;;;;;0.97;68.42;100326.83;1686574;83;26612;-68
2022/02/14 05:06:36;;;;;;;;;;;;;;;0.97;68.50;100333.88;1684603;83;84663;-68
2022/02/14 05:09:02;;;;;;;;;;;;;;;0.98;68.49;100325.94;1687655;83;25817;-68
2022/02/14 05:11:28;;;;;;;;;;;;;;;0.99;68.54;100329.45;1685968;83;83986;-68
2022/02/14 05:13:54;;;;;;;;;;;;;;;0.95;68.52;100333.89;1687693;83;27490;-68
2022/02/14 05:16:24;;;;;;;;;;;;;;;0.95;68.45;100335.20;1691914;83;27978;-68
2022/02/14 05:18:47;;;;;;;;;;;;;;;0.94;68.15;100339.17;1688960;83;83690;-70
2022/02/14 05:21:13;;;;;;;;;;;;;;;0.96;68.46;100334.77;1687552;83;25838;-68
2022/02/14 05:23:38;;;;;;;;;;;;;;;0.94;68.45;100340.05;1684888;83;83523;-68
2022/02/14 05:26:04;;;;;;;;;;;;;;;0.94;68.48;100337.41;1686326;83;25882;-68
2022/02/14 05:28:30;;;;;;;;;;;;;;;0.92;68.47;100337.88;1690893;83;84908;-71
2022/02/14 05:30:56;;;;;;;;;;;;;;;0.91;68.30;100338.77;1691549;83;25950;-70
2022/02/14 05:33:21;;;;;;;;;;;;;;;0.92;68.34;100337.88;1685970;83;25664;-68
2022/02/14 05:35:47;;;;;;;;;;;;;;;0.93;68.38;100333.02;1680965;83;83664;-68
2022/02/14 05:38:13;;;;;;;;;;;;;;;0.92;68.37;100326.45;1686463;83;25823;-68
2022/02/14 05:40:38;;;;;;;;;;;;;;;0.91;68.15;100326.89;1684380;83;84752;-68
2022/02/14 05:43:04;;;;;;;;;;;;;;;0.93;68.29;100325.11;1685582;83;25383;-68
2022/02/14 05:45:30;;;;;;;;;;;;;;;0.95;68.40;100331.25;1687059;83;25938;-68
2022/02/14 05:47:55;;;;;;;;;;;;;;;0.96;68.41;100333.00;1684985;83;84571;-68
2022/02/14 05:50:21;;;;;;;;;;;;;;;0.96;68.32;100330.36;1684248;83;26015;-68
2022/02/14 05:52:47;;;;;;;;;;;;;;;0.95;68.25;100327.73;1687740;83;84039;-70
2022/02/14 05:55:13;;;;;;;;;;;;;;;0.95;68.08;100319.38;1683868;83;25377;-68
2022/02/14 05:57:39;;;;;;;;;;;;;;;0.98;68.24;100332.54;1691391;83;28173;-70
2022/02/14 06:00:06;;;;;;;;;;;;;;;0.99;68.29;100337.38;1686572;83;83811;-68
2022/02/14 06:02:34;;;;;;;;;;;;;;;0.98;68.27;100327.27;1688305;83;28319;-69
2022/02/14 06:05:00;;;;;;;;;;;;;;;0.98;68.29;100330.34;1684957;83;84002;-68
2022/02/14 06:07:26;;;;;;;;;;;;;;;0.98;68.33;100329.03;1692685;83;25854;-68
2022/02/14 06:09:51;;;;;;;;;;;;;;;0.97;68.26;100329.47;1685952;83;25815;-68
2022/02/14 06:12:17;;;;;;;;;;;;;;;0.98;68.32;100328.58;1688949;83;83665;-69
2022/02/14 06:14:43;;;;;;;;;;;;;;;0.96;68.34;100329.04;1684491;83;25879;-68
2022/02/14 06:17:08;;;;;;;;;;;;;;;0.95;68.34;100336.52;1690017;83;83914;-68
2022/02/14 06:19:34;;;;;;;;;;;;;;;0.94;68.37;100330.82;1685916;83;25821;-69
2022/02/14 06:22:00;;;;;;;;;;;;;;;0.91;68.08;100336.13;1688391;83;25909;-68
2022/02/14 06:24:25;;;;;;;;;;;;;;;0.88;68.34;100340.11;1688518;83;83703;-67
2022/02/14 06:26:51;;;;;;;;;;;;;;;0.86;68.25;100335.73;1689223;83;28002;-69
2022/02/14 06:29:17;;;;;;;;;;;;;;;0.86;68.40;100341.89;1689385;83;83782;-71
2022/02/14 06:31:42;;;;;;;;;;;;;;;0.87;68.49;100342.77;1689343;83;26120;-69
2022/02/14 06:34:08;;;;;;;;;;;;;;;0.87;68.38;100329.57;1687583;83;26492;-71
2022/02/14 06:36:34;;;;;;;;;;;;;;;0.89;68.47;100335.27;1685323;83;84635;-69
2022/02/14 06:39:02;;;;;;;;;;;;;;;0.91;68.53;100331.30;1684281;83;27463;-69
2022/02/14 06:41:28;;;;;;;;;;;;;;;0.93;68.44;100336.11;1683392;83;84668;-68
2022/02/14 06:43:54;;;;;;;;;;;;;;;0.94;68.49;100342.69;1685386;83;25734;-69
2022/02/14 06:46:21;;;;;;;;;;;;;;;0.95;68.55;100347.08;1684518;83;25779;-70
2022/02/14 06:48:47;;;;;;;;;;;;;;;0.97;68.54;100340.02;1681500;83;84874;-70
2022/02/14 06:51:13;;;;;;;;;;;;;;;1.01;68.56;100330.76;1674359;83;27450;-68
2022/02/14 06:53:39;;;;;;;;;;;;;;;1.03;68.54;100331.63;1672092;84;83897;-68
2022/02/14 06:56:06;;;;;;;;;;;;;;;1.04;68.51;100324.13;1670161;84;25807;-71
2022/02/14 06:58:36;;;;;;;;;;;;;;;1.07;68.57;100324.98;1668819;84;84747;-69
2022/02/14 07:01:03;;;;;;;;;;;;;;;1.11;68.59;100337.25;1672411;84;25963;-70
2022/02/14 07:03:29;;;;;;;;;;;;;;;1.13;68.60;100327.55;1672269;84;27373;-70
2022/02/14 07:05:55;;;;;;;;;;;;;;;1.15;68.53;100325.78;1674254;84;84711;-70
2022/02/14 07:08:20;;;;;;;;;;;;;;;1.19;68.55;100326.62;1675950;84;25772;-71
2022/02/14 07:10:46;;;;;;;;;;;;;;;1.21;68.54;100322.20;1673891;84;84753;-70
2022/02/14 07:13:11;;;;;;;;;;;;;;;1.25;68.56;100335.80;1675253;84;25841;-70
2022/02/14 07:15:37;;;;;;;;;;;;;;;1.28;68.49;100337.08;1676428;84;26880;-71
2022/02/14 07:18:04;;;;;;;;;;;;;;;1.31;68.50;100323.84;1671326;84;83841;-70
2022/02/14 07:20:30;;;;;;;;;;;;;;;1.32;68.56;100326.92;1670155;84;25898;-71
2022/02/14 07:22:56;;;;;;;;;;;;;;;1.36;68.53;100325.13;1671712;84;84687;-72
2022/02/14 07:25:21;;;;;;;;;;;;;;;1.39;68.54;100316.72;1672889;84;25876;-70
2022/02/14 07:27:47;;;;;;;;;;;;;;;1.44;68.49;100324.59;1675263;84;27416;-70
2022/02/14 07:30:13;;;;;;;;;;;;;;;1.48;68.58;100320.57;1671925;84;83635;-70
2022/02/14 07:32:39;;;;;;;;;;;;;;;1.52;68.56;100310.40;1676192;84;26607;-70
2022/02/14 07:35:06;;;;;;;;;;;;;;;1.56;68.55;100317.39;1672540;84;84746;-70
2022/02/14 07:37:32;;;;;;;;;;;;;;;1.61;68.59;100318.22;1671406;84;25875;-70
2022/02/14 07:39:58;;;;;;;;;;;;;;;1.67;68.54;100305.83;1672767;84;26949;-70
2022/02/14 07:42:24;;;;;;;;;;;;;;;1.71;68.53;100307.53;1674433;84;84701;-70
2022/02/14 07:44:50;;;;;;;;;;;;;;;1.76;68.50;100309.22;1674184;84;26076;-69
2022/02/14 07:47:16;;;;;;;;;;;;;;;1.82;68.43;100307.82;1677513;84;84660;-71
2022/02/14 07:49:41;;;;;;;;;;;;;;;1.90;68.27;100298.47;1679540;85;25606;-71
2022/02/14 07:52:07;;;;;;;;;;;;;;;2.05;68.24;100302.67;1692706;84;27473;-69
2022/02/14 07:54:33;;;;;;;;;;;;;;;2.19;68.60;100287.03;1680819;85;84442;-70
2022/02/14 07:56:58;;;;;;;;;;;;;;;2.35;68.28;100292.96;1693889;84;25945;-70
2022/02/14 07:59:24;;;;;;;;;;;;;;;2.40;68.38;100287.59;1693346;84;84165;-72
2022/02/14 08:01:51;;;;;;;;;;;;;;;2.45;68.37;100277.37;1693996;84;25712;-73
2022/02/14 08:04:17;;;;;;;;;;;;;;;2.54;68.23;100278.99;1694561;84;27470;-71
2022/02/14 08:06:42;;;;;;;;;;;;;;;2.56;68.37;100283.80;1692917;84;84548;-72
2022/02/14 08:09:11;;;;;;;;;;;;;;;2.64;68.19;100287.61;1694426;84;25816;-72
2022/02/14 08:11:36;;;;;;;;;;;;;;;2.69;68.15;100279.15;1692922;84;84742;-73
2022/02/14 08:14:02;;;;;;;;;;;;;;;2.78;68.36;100273.25;1694303;84;25697;-72
2022/02/14 08:16:28;;;;;;;;;;;;;;;2.86;68.23;100275.76;1694100;84;27435;-72
2022/02/14 08:18:53;;;;;;;;;;;;;;;2.87;67.95;100278.83;1693217;84;83638;-71
2022/02/14 08:21:20;;;;;;;;;;;;;;;2.91;67.90;100271.25;1694515;84;25613;-71
2022/02/14 08:23:45;;;;;;;;;;;;;;;3.00;68.00;100271.53;1692791;84;83851;-71
2022/02/14 08:26:11;;;;;;;;;;;;;;;3.07;67.58;100263.90;1694426;84;25635;-71
2022/02/14 08:28:38;;;;;;;;;;;;;;;3.15;67.77;100265.95;1693245;84;84167;-71
2022/02/14 08:31:05;;;;;;;;;;;;;;;3.18;67.32;100261.92;1693945;84;25656;-72
2022/02/14 08:33:31;;;;;;;;;;;;;;;3.23;67.30;100256.08;1696099;84;25462;-70
2022/02/14 08:35:56;;;;;;;;;;;;;;;3.32;67.27;100255.91;1694906;83;84679;-70
2022/02/14 08:38:22;;;;;;;;;;;;;;;3.34;66.93;100246.15;1696352;84;25433;-70
2022/02/14 08:40:48;;;;;;;;;;;;;;;3.39;66.78;100260.63;1695297;84;84001;-70
2022/02/14 08:43:14;;;;;;;;;;;;;;;3.42;66.53;100253.94;1695500;84;25696;-71
2022/02/14 08:45:39;;;;;;;;;;;;;;;3.46;66.75;100253.84;1691349;84;26155;-70
2022/02/14 08:48:05;;;;;;;;;;;;;;;3.52;66.60;100249.74;1684509;83;84726;-70
2022/02/14 08:50:31;;;;;;;;;;;;;;;3.59;66.45;100248.71;1690188;83;26191;-70
2022/02/14 08:53:00;;;;;;;;;;;;;;;3.62;66.34;100242.92;1689436;83;84880;-70
2022/02/14 08:55:24;;;;;;;;;;;;;;;3.68;65.70;100244.12;1687171;83;25873;-71
2022/02/14 08:57:50;;;;;;;;;;;;;;;3.73;65.82;100252.39;1685732;83;26450;-70
2022/02/14 09:00:16;;;;;;;;;;;;;;;3.73;65.49;100244.44;1692125;83;83846;-69
2022/02/14 09:02:42;;;;;;;;;;;;;;;3.73;65.69;100251.52;1685765;83;26562;-70
2022/02/14 09:05:07;;;;;;;;;;;;;;;3.73;65.55;100256.37;1684040;83;83986;-71
2022/02/14 09:07:33;;;;;;;;;;;;;;;3.75;65.56;100257.66;1685457;83;26525;-71
2022/02/14 09:09:59;;;;;;;;;;;;;;;3.78;65.26;100253.16;1690250;83;26559;-73
2022/02/14 09:12:25;;;;;;;;;;;;;;;3.81;65.26;100254.88;1680280;83;83984;-72
2022/02/14 09:14:50;;;;;;;;;;;;;;;3.82;65.27;100253.97;1688260;83;26502;-73
2022/02/14 09:17:18;;;;;;;;;;;;;;;3.87;65.32;100239.70;1687352;83;85169;-72
2022/02/14 09:19:43;;;;;;;;;;;;;;;3.94;65.12;100244.41;1691725;83;26522;-73
2022/02/14 09:22:09;;;;;;;;;;;;;;;3.99;63.96;100242.53;1683239;83;25701;-72
2022/02/14 09:24:36;;;;;;;;;;;;;;;4.01;63.27;100234.08;1685340;83;83870;-73
2022/02/14 09:27:03;;;;;;;;;;;;;;;4.07;64.64;100242.35;1688389;83;26027;-72
2022/02/14 09:29:30;;;;;;;;;;;;;;;4.11;64.79;100242.24;1685102;83;84576;-73
2022/02/14 09:31:57;;;;;;;;;;;;;;;4.14;64.53;100231.56;1685855;83;25984;-72
2022/02/14 09:34:24;;;;;;;;;;;;;;;4.19;64.82;100232.78;1688425;83;25841;-72
2022/02/14 09:36:52;;;;;;;;;;;;;;;4.24;64.47;100226.45;1686800;83;83709;-72
2022/02/14 09:39:17;;;;;;;;;;;;;;;4.27;64.11;100228.16;1688926;83;25807;-72
2022/02/14 09:41:42;;;;;;;;;;;;;;;4.32;64.54;100215.66;1685755;83;84436;-74
2022/02/14 09:44:08;;;;;;;;;;;;;;;4.38;64.06;100214.63;1684143;83;25931;-74
2022/02/14 09:46:43;;;;;;;;;;;;;;;4.42;64.25;100221.61;1684074;83;84051;-73
2022/02/14 09:49:07;;;;;;;;;;;;;;;4.48;64.15;100214.81;1695308;83;26491;-72
2022/02/14 09:51:35;;;;;;;;;;;;;;;4.53;63.96;100216.45;1691604;83;25931;-72
2022/02/14 09:54:03;;;;;;;;;;;;;;;4.60;63.90;100210.52;1686053;83;83717;-72
2022/02/14 09:56:35;;;;;;;;;;;;;;;4.66;64.12;100213.02;1692044;83;25811;-72
2022/02/14 09:58:59;;;;;;;;;;;;;;;4.72;64.04;100206.67;1690638;83;84060;-72
2022/02/14 10:01:29;;;;;;;;;;;;;;;4.77;63.74;100220.25;1690344;83;25893;-73
2022/02/14 10:03:56;;;;;;;;;;;;;;;4.83;63.71;100211.25;1685412;83;25733;-72
2022/02/14 10:06:30;;;;;;;;;;;;;;;4.92;63.71;100212.78;1693033;82;83902;-71
2022/02/14 10:09:11;;;;;;;;;;;;;;;4.99;63.53;100211.70;1691555;83;26073;-72
2022/02/14 10:11:42;;;;;;;;;;;;;;;5.05;62.60;100212.41;1691938;83;83707;-72
2022/02/14 10:14:17;;;;;;;;;;;;;;;5.08;63.27;100207.01;1667784;84;26445;-72
2022/02/14 10:17:03;;;;;;;;;;;;;;;5.13;63.24;100205.09;1661465;84;84041;-72
2022/02/14 10:19:30;;;;;;;;;;;;;;;5.21;63.17;100194.22;1687270;83;26577;-72
2022/02/14 10:21:56;;;;;;;;;;;;;;;5.25;63.11;100195.00;1684928;83;25782;-72
2022/02/14 10:24:22;;;;;;;;;;;;;;;5.32;62.85;100195.23;1681703;83;83893;-71
2022/02/14 10:26:51;;;;;;;;;;;;;;;5.36;62.72;100197.76;1688634;83;25860;-71
2022/02/14 10:29:22;;;;;;;;;;;;;;;5.42;62.97;100195.38;1686785;83;83932;-73
2022/02/14 10:31:54;;;;;;;;;;;;;;;5.48;63.02;100201.38;1688574;83;27453;-71
2022/02/14 10:34:23;;;;;;;;;;;;;;;5.57;62.82;100190.06;1656362;83;27804;-71
2022/02/14 10:36:51;;;;;;;;;;;;;;;5.66;62.76;100191.98;1669449;84;84049;-72
2022/02/14 10:39:22;;;;;;;;;;;;;;;5.76;62.83;100181.94;1668054;84;26289;-72
2022/02/14 10:41:56;;;;;;;;;;;;;;;5.81;62.67;100183.53;1667508;84;83949;-71
2022/02/14 10:47:19;;;;;;;;;;;;;;;6.00;62.66;100174.55;1669097;84;84051;-72
2022/02/14 10:49:59;;;;;;;;;;;;;;;6.06;62.39;100173.02;1670297;84;26042;-71
2022/02/14 10:52:35;;;;;;;;;;;;;;;6.19;61.67;100170.37;1668896;83;25953;-72
2022/02/14 10:55:01;;;;;;;;;;;;;;;6.35;61.45;100165.86;1678855;83;83561;-72
2022/02/14 10:57:37;;;;;;;;;;;;;;;6.50;62.03;100158.69;1686297;83;27397;-71
2022/02/14 11:00:12;;;;;;;;;;;;;;;6.60;61.91;100162.77;1685876;83;83843;-70
2022/02/14 11:02:43;;;;;;;;;;;;;;;6.70;62.01;100161.99;1686486;83;25753;-71
2022/02/14 11:05:10;;;;;;;;;;;;;;;6.78;61.99;100158.13;1693534;83;85016;-71
2022/02/14 11:07:38;;;;;;;;;;;;;;;6.83;61.67;100144.19;1683109;83;25918;-71
2022/02/14 11:10:05;;;;;;;;;;;;;;;6.87;61.65;100147.61;1687583;83;28150;-71
2022/02/14 11:12:35;;;;;;;;;;;;;;;6.93;61.27;100139.86;1684501;83;83858;-71
2022/02/14 11:15:04;;;;;;;;;;;;;;;7.05;61.43;100142.08;1684790;83;25849;-70
2022/02/14 11:17:32;;;;;;;;;;;;;;;7.12;59.33;100131.59;1682568;83;84658;-70
2022/02/14 11:20:00;;;;;;;;;;;;;;;7.28;60.97;100138.08;1685685;83;25509;-70
2022/02/14 11:22:28;;;;;;;;;;;;;;;7.51;61.01;100128.34;1690381;83;28571;-71
2022/02/14 11:25:06;;;;;;;;;;;;;;;7.72;60.87;100136.36;1690532;83;85215;-71
2022/02/14 11:27:35;;;;;;;;;;;;;;;7.88;60.65;100127.70;1677789;83;25912;-70
2022/02/14 11:30:06;;;;;;;;;;;;;;;8.07;60.72;100136.23;1687034;83;83821;-70
2022/02/14 11:32:39;;;;;;;;;;;;;;;8.20;60.53;100121.05;1686044;83;26508;-70
2022/02/14 11:35:20;;;;;;;;;;;;;;;8.32;60.54;100117.39;1682706;83;85685;-69
2022/02/14 11:37:51;;;;;;;;;;;;;;;8.50;60.58;100114.91;1684412;83;26455;-74
2022/02/14 11:40:32;;;;;;;;;;;;;;;8.62;59.46;100113.91;1686041;83;25885;-69
2022/02/14 11:43:15;;;;;;;;;;;;;;;8.62;59.50;100113.03;1688711;83;83835;-67
2022/02/14 11:45:42;;;;;;;;;;;;;;;8.52;58.99;100112.56;1688002;83;26738;-70
2022/02/14 11:48:24;;;;;;;;;;;;;;;8.40;58.73;100109.09;1685105;83;83960;-70
2022/02/14 11:50:50;;;;;;;;;;;;;;;8.30;58.52;100114.39;1664068;84;26370;-69
2022/02/14 11:53:36;;;;;;;;;;;;;;;8.18;57.85;100103.76;1683343;83;83905;-69
2022/02/14 11:56:22;;;;;;;;;;;;;;;8.16;58.13;100109.62;1678203;83;26275;-69
2022/02/14 11:59:12;;;;;;;;;;;;;;;8.09;58.00;100091.66;1678516;83;84830;-72
2022/02/14 12:01:55;;;;;;;;;;;;;;;8.16;58.07;100108.30;1679732;83;27391;-70
2022/02/14 12:04:41;;;;;;;;;;;;;;;8.26;56.42;100110.98;1679533;83;25949;-71
2022/02/14 12:07:33;;;;;;;;;;;;;;;8.32;57.71;100103.17;1678638;83;83676;-72
2022/02/14 12:10:05;;;;;;;;;;;;;;;8.37;57.80;100103.88;1678288;83;26393;-72
2022/02/14 12:12:54;;;;;;;;;;;;;;;8.43;57.67;100098.27;1680631;83;83888;-71
2022/02/14 12:20:51;;;;;;;;;;;;;;;8.70;56.77;100093.06;1680345;83;26273;-71
2022/02/14 12:23:32;;;;;;;;;;;;;;;8.76;56.67;100082.56;1682485;83;84007;-74
2022/02/14 12:25:58;;;;;;;;;;;;;;;8.83;56.22;100092.05;1683960;83;25816;-74
2022/02/14 12:28:25;;;;;;;;;;;;;;;8.91;56.78;100081.88;1680247;83;27430;-75
2022/02/14 12:30:52;;;;;;;;;;;;;;;8.97;56.96;100080.26;1677824;83;83866;-73
2022/02/14 12:33:19;;;;;;;;;;;;;;;8.98;56.83;100078.45;1677471;83;26513;-73
2022/02/14 12:35:47;;;;;;;;;;;;;;;9.06;56.67;100070.95;1699076;82;83960;-70
2022/02/14 12:38:13;;;;;;;;;;;;;;;9.15;56.62;100063.84;1680753;83;26394;-70
2022/02/14 12:40:50;;;;;;;;;;;;;;;9.20;55.23;100061.81;1700110;82;27436;-70
2022/02/14 12:43:43;;;;;;;;;;;;;;;9.29;56.62;100057.84;1683164;83;84496;-71
2022/02/14 12:46:14;;;;;;;;;;;;;;;9.38;56.51;100054.73;1682100;83;26168;-69
2022/02/14 12:48:43;;;;;;;;;;;;;;;9.42;56.41;100054.51;1674993;83;85212;-70
2022/02/14 12:51:28;;;;;;;;;;;;;;;9.46;56.17;100049.88;1679498;83;26449;-70
2022/02/14 12:53:56;;;;;;;;;;;;;;;9.46;55.60;100047.20;1696012;82;84029;-70
2022/02/14 12:56:27;;;;;;;;;;;;;;;9.44;56.27;100039.72;1691390;83;26322;-69
2022/02/14 12:59:00;;;;;;;;;;;;;;;9.54;56.35;100041.02;1666084;84;26525;-71